createdAt,value
2022-08-03T00:01:44.730Z,22.86
2022-08-03T00:04:13.238Z,22.85
2022-08-03T00:06:41.109Z,22.84
2022-08-03T00:09:10.742Z,22.80
2022-08-03T00:11:39.409Z,22.76
2022-08-03T00:14:08.268Z,22.73
2022-08-03T00:16:36.268Z,22.70
2022-08-03T00:19:04.580Z,22.60
2022-08-03T00:21:32.459Z,22.60
2022-08-03T00:24:00.266Z,22.55
2022-08-03T00:26:29.567Z,22.54
2022-08-03T00:28:57.512Z,22.51
2022-08-03T00:31:39.791Z,22.49
2022-08-03T00:34:13.232Z,22.47
2022-08-03T00:36:41.429Z,22.42
2022-08-03T00:39:09.694Z,22.39
2022-08-03T00:41:39.006Z,22.37
2022-08-03T00:44:06.905Z,22.33
2022-08-03T00:46:34.750Z,22.30
2022-08-03T00:49:03.401Z,22.27
2022-08-03T00:51:31.365Z,22.24
2022-08-03T00:53:59.213Z,22.21
2022-08-03T00:56:27.828Z,22.18
2022-08-03T00:58:58.755Z,22.13
2022-08-03T01:01:26.633Z,22.11
2022-08-03T01:04:00.037Z,22.09
2022-08-03T01:06:35.351Z,22.07
2022-08-03T01:09:10.580Z,22.05
2022-08-03T01:11:59.907Z,22.01
2022-08-03T01:14:35.534Z,21.98
2022-08-03T01:17:08.591Z,21.95
2022-08-03T01:19:47.673Z,21.91
2022-08-03T01:22:29.715Z,21.90
2022-08-03T01:25:04.235Z,21.86
2022-08-03T01:27:44.491Z,21.78
2022-08-03T01:30:14.133Z,21.73
2022-08-03T01:32:54.491Z,21.72
2022-08-03T01:35:35.516Z,21.71
2022-08-03T01:38:11.114Z,21.68
2022-08-03T01:40:40.736Z,21.64
2022-08-03T01:43:12.783Z,21.58
2022-08-03T01:45:44.955Z,21.57
2022-08-03T01:48:13.864Z,21.56
2022-08-03T01:50:42.141Z,21.56
2022-08-03T01:53:11.039Z,21.54
2022-08-03T01:55:41.207Z,21.52
2022-08-03T01:58:09.686Z,21.51
2022-08-03T02:00:38.873Z,21.50
2022-08-03T02:03:09.446Z,21.48
2022-08-03T02:05:39.060Z,21.48
2022-08-03T02:08:10.136Z,21.39
2022-08-03T02:10:39.078Z,21.35
2022-08-03T02:13:09.751Z,21.31
2022-08-03T02:15:38.982Z,21.30
2022-08-03T02:18:10.644Z,21.30
2022-08-03T02:20:39.869Z,21.22
2022-08-03T02:23:08.008Z,21.23
2022-08-03T02:25:40.037Z,21.27
2022-08-03T02:28:13.127Z,21.26
2022-08-03T02:30:44.563Z,21.26
2022-08-03T02:33:19.815Z,21.25
2022-08-03T02:35:48.786Z,21.24
2022-08-03T02:38:20.462Z,21.22
2022-08-03T02:40:48.714Z,21.23
2022-08-03T02:43:19.170Z,21.16
2022-08-03T02:45:49.233Z,21.12
2022-08-03T02:48:22.701Z,21.11
2022-08-03T02:50:52.910Z,21.09
2022-08-03T02:53:22.445Z,21.10
2022-08-03T02:55:51.261Z,21.06
2022-08-03T02:58:21.698Z,21.05
2022-08-03T03:00:51.771Z,21.03
2022-08-03T03:03:23.315Z,21.01
2022-08-03T03:05:57.615Z,21.02
2022-08-03T03:08:28.139Z,20.97
2022-08-03T04:02:43.720Z,20.65
2022-08-03T04:10:27.439Z,20.55
2022-08-03T04:12:17.562Z,20.55
2022-08-03T04:18:51.769Z,20.61
2022-08-03T04:22:33.325Z,20.63
2022-08-03T04:26:11.757Z,20.66
2022-08-03T04:30:05.784Z,20.69
2022-08-03T04:33:23.031Z,20.74
2022-08-03T04:40:29.877Z,20.85
2022-08-03T04:54:16.170Z,21.16
2022-08-03T05:03:25.217Z,21.36
2022-08-03T05:06:11.490Z,21.43
2022-08-03T05:09:49.927Z,21.50
2022-08-03T05:14:49.807Z,21.66
2022-08-03T05:17:48.496Z,21.79
2022-08-03T05:20:56.935Z,22.00
2022-08-03T05:23:32.228Z,22.34
2022-08-03T05:26:30.987Z,22.58
2022-08-03T05:31:12.738Z,22.83
2022-08-03T05:32:40.404Z,22.97
2022-08-03T05:35:57.589Z,23.07
2022-08-03T05:39:35.357Z,23.14
2022-08-03T05:47:52.617Z,23.15
2022-08-03T05:51:26.278Z,23.17
2022-08-03T06:03:40.380Z,23.23
2022-08-03T06:06:00.195Z,23.31
2022-08-03T06:12:27.235Z,23.47
2022-08-03T06:19:19.750Z,23.65
2022-08-03T06:22:35.971Z,23.75
2022-08-03T06:28:53.247Z,23.93
2022-08-03T06:31:33.359Z,24.01
2022-08-03T06:34:31.357Z,24.12
2022-08-03T06:37:29.554Z,24.20
2022-08-03T06:40:21.602Z,24.30
2022-08-03T06:42:56.794Z,24.39
2022-08-03T06:45:41.155Z,24.46
2022-08-03T06:48:33.040Z,24.50
2022-08-03T06:52:04.955Z,24.51
2022-08-03T06:54:25.100Z,24.54
2022-08-03T06:57:24.569Z,24.62
2022-08-03T07:01:03.437Z,24.72
2022-08-03T07:03:04.661Z,24.79
2022-08-03T07:05:58.692Z,24.85
2022-08-03T07:08:34.473Z,24.93
2022-08-03T07:11:22.377Z,25.02
2022-08-03T07:14:28.310Z,25.07
2022-08-03T07:16:57.200Z,25.08
2022-08-03T07:19:33.029Z,25.14
2022-08-03T07:22:24.852Z,25.19
2022-08-03T07:25:09.111Z,25.25
2022-08-03T07:27:40.944Z,25.32
2022-08-03T07:30:28.682Z,25.42
2022-08-03T07:33:11.100Z,25.49
2022-08-03T07:35:50.997Z,25.54
2022-08-03T07:38:28.489Z,25.61
2022-08-03T07:41:13.102Z,25.67
2022-08-03T07:45:43.846Z,25.72
2022-08-03T07:47:07.248Z,25.80
2022-08-03T07:49:55.809Z,25.87
2022-08-03T07:56:03.313Z,25.97
2022-08-03T07:58:54.116Z,26.03
2022-08-03T08:01:39.546Z,26.11
2022-08-03T08:05:05.465Z,26.17
2022-08-03T08:10:30.930Z,26.39
2022-08-03T08:13:54.470Z,26.44
2022-08-03T08:16:40.777Z,26.47
2022-08-03T08:19:23.567Z,26.50
2022-08-03T08:22:48.912Z,26.59
2022-08-03T08:25:58.925Z,26.73
2022-08-03T08:28:57.983Z,26.79
2022-08-03T08:35:05.414Z,26.97
2022-08-03T08:41:53.477Z,27.05
2022-08-03T08:45:14.834Z,27.13
2022-08-03T08:48:29.941Z,27.20
2022-08-03T08:51:59.318Z,27.32
2022-08-03T08:54:27.648Z,27.37
2022-08-03T08:57:49.049Z,27.47
2022-08-03T09:00:29.410Z,27.50
2022-08-03T09:03:51.211Z,27.59
2022-08-03T09:10:11.279Z,27.74
2022-08-03T09:12:53.362Z,27.85
2022-08-03T09:15:57.164Z,27.95
2022-08-03T09:18:32.295Z,28.05
2022-08-03T09:21:31.599Z,28.12
2022-08-03T09:24:41.087Z,28.20
2022-08-03T09:27:38.305Z,28.31
2022-08-03T09:30:34.381Z,28.41
2022-08-03T09:33:10.565Z,28.43
2022-08-03T09:35:54.811Z,28.45
2022-08-03T09:38:43.653Z,28.49
2022-08-03T09:41:28.987Z,28.55
2022-08-03T09:44:03.580Z,28.53
2022-08-03T09:46:38.066Z,28.58
2022-08-03T09:49:23.682Z,28.71
2022-08-03T09:52:32.193Z,28.81
2022-08-03T09:56:33.541Z,28.91
2022-08-03T09:59:30.684Z,29.03
2022-08-03T10:02:33.148Z,29.12
2022-08-03T10:05:10.447Z,29.14
2022-08-03T10:08:40.773Z,29.19
2022-08-03T10:11:50.140Z,29.23
2022-08-03T10:14:50.709Z,29.30
2022-08-03T10:23:33.164Z,29.54
2022-08-03T10:26:22.684Z,29.61
2022-08-03T10:29:22.523Z,29.67
2022-08-03T10:32:24.264Z,29.70
2022-08-03T10:35:20.044Z,29.75
2022-08-03T10:41:59.944Z,29.97
2022-08-03T10:45:28.485Z,30.13
2022-08-03T10:51:48.336Z,30.30
2022-08-03T10:55:09.962Z,30.33
2022-08-03T10:58:30.685Z,30.38
2022-08-03T11:01:23.423Z,30.47
2022-08-03T11:04:58.799Z,30.48
2022-08-03T11:08:07.354Z,30.43
2022-08-03T11:14:10.904Z,30.54
2022-08-03T11:17:33.048Z,30.65
2022-08-03T11:20:15.288Z,30.61
2022-08-03T11:24:02.850Z,30.66
2022-08-03T11:26:51.358Z,30.70
2022-08-03T11:30:08.316Z,30.79
2022-08-03T11:33:55.418Z,30.80
2022-08-03T11:36:31.976Z,30.76
2022-08-03T11:39:57.417Z,30.83
2022-08-03T11:43:40.477Z,30.94
2022-08-03T12:10:25.931Z,31.56
2022-08-03T12:12:56.992Z,31.59
2022-08-03T12:15:27.309Z,31.56
2022-08-03T12:17:57.844Z,31.62
2022-08-03T12:20:34.480Z,31.71
2022-08-03T12:23:07.111Z,31.83
2022-08-03T12:25:39.112Z,31.89
2022-08-03T12:28:28.365Z,31.93
2022-08-03T12:31:03.207Z,32.01
2022-08-03T12:33:31.288Z,32.01
2022-08-03T12:36:08.314Z,32.09
2022-08-03T12:38:39.565Z,32.08
2022-08-03T12:41:13.504Z,32.15
2022-08-03T12:43:50.035Z,32.25
2022-08-03T12:46:18.971Z,32.32
2022-08-03T12:49:08.969Z,32.24
2022-08-03T12:51:39.238Z,32.22
2022-08-03T12:54:07.599Z,32.24
2022-08-03T12:56:37.015Z,32.24
2022-08-03T12:59:25.773Z,32.32
2022-08-03T13:02:04.370Z,32.29
2022-08-03T13:04:34.819Z,32.20
2022-08-03T13:07:04.173Z,32.19
2022-08-03T13:09:42.648Z,32.24
2022-08-03T13:12:13.576Z,32.28
2022-08-03T13:14:41.886Z,32.29
2022-08-03T13:17:09.855Z,32.21
2022-08-03T13:19:39.563Z,32.21
2022-08-03T13:22:15.157Z,32.31
2022-08-03T13:24:43.881Z,32.40
2022-08-03T13:28:02.565Z,32.40
2022-08-03T13:30:02.167Z,32.41
2022-08-03T13:32:29.915Z,32.42
2022-08-03T13:34:57.723Z,32.41
2022-08-03T13:37:26.564Z,32.41
2022-08-03T13:40:00.331Z,32.42
2022-08-03T13:42:34.017Z,32.55
2022-08-03T13:45:02.614Z,32.70
2022-08-03T13:47:30.479Z,32.84
2022-08-03T13:50:01.437Z,32.90
2022-08-03T13:52:31.388Z,32.98
2022-08-03T13:54:59.833Z,33.03
2022-08-03T13:58:04.380Z,33.01
2022-08-03T14:00:27.987Z,33.06
2022-08-03T14:03:05.063Z,33.08
2022-08-03T14:05:38.475Z,33.02
2022-08-03T14:08:07.233Z,32.86
2022-08-03T14:10:36.633Z,32.83
2022-08-03T14:13:04.964Z,32.85
2022-08-03T14:15:37.790Z,32.88
2022-08-03T14:18:06.965Z,32.94
2022-08-03T14:20:36.587Z,32.96
2022-08-03T14:23:12.968Z,32.95
2022-08-03T14:25:49.894Z,32.97
2022-08-03T14:28:20.259Z,32.88
2022-08-03T14:30:49.643Z,32.89
2022-08-03T14:33:17.516Z,32.76
2022-08-03T14:35:46.699Z,32.74
2022-08-03T14:38:14.859Z,32.69
2022-08-03T14:40:43.251Z,32.67
2022-08-03T14:43:11.223Z,32.71
2022-08-03T14:45:39.684Z,32.70
2022-08-03T14:50:30.652Z,32.62
2022-08-03T14:50:57.009Z,32.47
2022-08-03T14:53:24.947Z,32.43
2022-08-03T14:55:53.427Z,32.34
2022-08-03T14:58:22.057Z,32.40
2022-08-03T15:00:51.389Z,32.48
2022-08-03T15:03:23.682Z,32.46
2022-08-03T15:05:52.878Z,32.49
2022-08-03T15:08:21.028Z,32.50
2022-08-03T15:10:49.386Z,32.51
2022-08-03T15:13:17.911Z,32.45
2022-08-03T15:15:45.827Z,32.39
2022-08-03T15:18:13.615Z,32.35
2022-08-03T15:20:45.949Z,32.38
2022-08-03T15:23:15.098Z,32.39
2022-08-03T15:26:30.091Z,32.41
2022-08-03T15:28:31.400Z,32.49
2022-08-03T15:30:59.314Z,32.45
2022-08-03T15:33:27.271Z,32.41
2022-08-03T15:35:57.302Z,32.38
2022-08-03T15:38:25.912Z,32.36
2022-08-03T15:40:55.422Z,32.34
2022-08-03T15:43:23.386Z,32.26
2022-08-03T15:46:12.621Z,32.22
2022-08-03T15:48:39.319Z,32.21
2022-08-03T15:51:09.288Z,32.17
2022-08-03T15:53:37.396Z,32.14
2022-08-03T15:56:12.152Z,32.15
2022-08-03T15:59:03.433Z,32.19
2022-08-03T16:01:31.253Z,32.22
2022-08-03T16:03:59.026Z,32.28
2022-08-03T16:06:35.277Z,32.27
2022-08-03T16:09:24.174Z,32.26
2022-08-03T16:11:54.378Z,32.28
2022-08-03T16:14:34.235Z,32.31
2022-08-03T16:17:06.022Z,32.23
2022-08-03T16:19:33.970Z,32.24
2022-08-03T16:22:04.936Z,32.25
2022-08-03T16:24:34.049Z,32.29
2022-08-03T16:27:05.495Z,32.23
2022-08-03T16:29:35.751Z,32.19
2022-08-03T16:32:09.315Z,32.18
2022-08-03T16:34:38.081Z,32.19
2022-08-03T16:37:35.363Z,32.18
2022-08-03T16:39:55.800Z,32.15
2022-08-03T16:42:23.620Z,32.09
2022-08-03T16:44:51.405Z,32.01
2022-08-03T16:47:21.817Z,31.92
2022-08-03T16:49:53.743Z,31.89
2022-08-03T16:52:26.415Z,31.83
2022-08-03T16:54:54.773Z,31.82
2022-08-03T16:57:56.307Z,31.81
2022-08-03T17:00:33.247Z,31.74
2022-08-03T17:03:04.124Z,31.70
2022-08-03T17:05:47.006Z,31.65
2022-08-03T17:08:26.255Z,31.64
2022-08-03T17:10:55.663Z,31.65
2022-08-03T17:13:27.726Z,31.63
2022-08-03T17:16:12.086Z,31.64
2022-08-03T17:18:48.308Z,31.63
2022-08-03T17:21:23.812Z,31.64
2022-08-03T17:24:00.013Z,31.62
2022-08-03T17:26:30.468Z,31.57
2022-08-03T17:29:11.109Z,31.52
2022-08-03T17:31:49.436Z,31.50
2022-08-03T17:34:18.895Z,31.44
2022-08-03T17:37:03.730Z,31.43
2022-08-03T17:39:58.700Z,31.36
2022-08-03T17:42:30.213Z,31.36
2022-08-03T17:45:02.287Z,31.32
2022-08-03T17:47:42.088Z,31.28
2022-08-03T17:50:23.929Z,31.26
2022-08-03T17:53:07.306Z,31.18
2022-08-03T17:55:55.830Z,31.14
2022-08-03T17:58:38.093Z,31.11
2022-08-03T18:01:59.274Z,31.07
2022-08-03T18:04:30.351Z,31.02
2022-08-03T18:07:00.508Z,30.97
2022-08-03T18:10:03.508Z,30.87
2022-08-03T18:12:51.760Z,30.85
2022-08-03T18:15:29.546Z,30.86
2022-08-03T18:18:10.297Z,30.84
2022-08-03T18:20:42.701Z,30.80
2022-08-03T18:23:24.866Z,30.73
2022-08-03T18:26:04.812Z,30.65
2022-08-03T18:28:35.900Z,30.58
2022-08-03T18:31:05.670Z,30.51
2022-08-03T18:34:16.659Z,30.46
2022-08-03T18:36:30.620Z,30.41
2022-08-03T18:39:00.436Z,30.34
2022-08-03T18:41:32.232Z,30.30
2022-08-03T18:44:08.719Z,30.22
2022-08-03T18:46:54.897Z,30.14
2022-08-03T18:49:36.745Z,30.07
2022-08-03T18:52:12.137Z,30.01
2022-08-03T18:55:03.867Z,29.96
2022-08-03T18:57:43.162Z,29.90
2022-08-03T19:00:15.658Z,29.83
2022-08-03T19:02:50.229Z,29.77
2022-08-03T19:05:21.611Z,29.72
2022-08-03T19:07:58.465Z,29.69
2022-08-03T19:10:57.776Z,29.63
2022-08-03T19:13:36.126Z,29.59
2022-08-03T19:16:15.626Z,29.55
2022-08-03T19:18:49.653Z,29.48
2022-08-03T19:21:18.067Z,29.43
2022-08-03T19:23:46.543Z,29.33
2022-08-03T19:29:15.190Z,28.98
2022-08-03T19:31:58.784Z,28.95
2022-08-03T19:34:30.187Z,28.95
2022-08-03T19:36:58.811Z,28.95
2022-08-03T19:39:26.996Z,28.87
2022-08-03T19:42:08.093Z,28.81
2022-08-03T19:44:40.932Z,28.75
2022-08-03T19:47:17.088Z,28.64
2022-08-03T19:50:06.254Z,28.59
2022-08-03T19:52:51.945Z,28.50
2022-08-03T19:55:22.975Z,28.42
2022-08-03T19:57:57.848Z,28.38
2022-08-03T20:00:38.108Z,28.37
2022-08-03T20:03:19.646Z,28.38
2022-08-03T20:05:54.159Z,28.33
2022-08-03T20:08:23.421Z,28.34
2022-08-03T20:10:57.773Z,28.36
2022-08-03T20:13:28.398Z,28.36
2022-08-03T20:15:56.318Z,28.35
2022-08-03T20:18:26.403Z,28.33
2022-08-03T20:20:55.639Z,28.32
2022-08-03T20:23:25.776Z,28.29
2022-08-03T20:26:05.463Z,28.25
2022-08-03T20:28:50.389Z,28.18
2022-08-03T20:31:23.811Z,28.12
2022-08-03T20:34:01.948Z,28.08
2022-08-03T20:36:30.304Z,28.02
2022-08-03T20:38:59.737Z,27.98
2022-08-03T20:41:27.828Z,27.95
2022-08-03T20:44:00.839Z,27.91
2022-08-03T20:46:41.389Z,27.86
2022-08-03T20:49:19.500Z,27.79
2022-08-03T20:51:52.584Z,27.76
2022-08-03T20:54:31.102Z,27.71
2022-08-03T20:57:03.704Z,27.68
2022-08-03T20:59:47.345Z,27.66
2022-08-03T21:02:29.882Z,27.62
2022-08-03T21:05:03.505Z,27.58
2022-08-03T21:08:04.301Z,27.55
2022-08-03T21:10:30.456Z,27.49
2022-08-03T21:13:02.202Z,29.14
2022-08-03T21:13:15.488Z,27.45
2022-08-03T21:16:04.760Z,27.41
2022-08-03T21:18:38.785Z,27.37
2022-08-03T21:21:11.158Z,27.33
2022-08-03T21:23:49.007Z,27.29
2022-08-03T21:26:19.144Z,27.25
2022-08-03T21:28:47.984Z,27.22
2022-08-03T21:31:24.860Z,27.20
2022-08-03T21:33:55.501Z,27.13
2022-08-03T21:36:25.491Z,27.05
2022-08-03T21:38:57.050Z,27.01
2022-08-03T21:41:26.184Z,26.98
2022-08-03T21:43:53.922Z,26.96
2022-08-03T21:46:23.944Z,26.94
2022-08-03T21:48:56.116Z,26.90
2022-08-03T21:51:26.929Z,26.87
2022-08-03T21:54:03.606Z,26.83
2022-08-03T21:56:37.177Z,26.82
2022-08-03T21:59:07.669Z,26.81
2022-08-03T22:01:37.018Z,26.76
2022-08-03T22:04:07.103Z,26.72
2022-08-03T22:06:36.445Z,26.68
2022-08-03T22:09:06.716Z,26.63
2022-08-03T22:11:35.060Z,26.58
2022-08-03T22:14:02.995Z,26.52
2022-08-03T22:16:30.839Z,26.45
2022-08-03T22:18:58.612Z,26.42
2022-08-03T22:21:36.367Z,26.35
2022-08-03T22:24:07.400Z,26.31
2022-08-03T22:26:37.074Z,26.29
2022-08-03T22:29:08.903Z,26.27
2022-08-03T22:31:57.446Z,26.25
2022-08-03T22:34:27.442Z,26.20
2022-08-03T22:37:00.141Z,26.17
2022-08-03T22:39:30.598Z,26.14
2022-08-03T22:41:59.211Z,26.12
2022-08-03T22:44:27.546Z,26.07
2022-08-03T22:46:56.490Z,26.06
2022-08-03T22:49:24.872Z,26.04
2022-08-03T22:51:53.156Z,25.99
2022-08-03T22:54:20.994Z,25.99
2022-08-03T22:56:50.998Z,25.98
2022-08-03T22:59:39.283Z,25.96
2022-08-03T23:02:20.562Z,25.93
2022-08-03T23:04:50.703Z,25.88
2022-08-03T23:07:31.239Z,25.80
2022-08-03T23:10:01.634Z,25.76
2022-08-03T23:12:33.847Z,25.74
2022-08-03T23:15:03.277Z,25.76
2022-08-03T23:17:32.694Z,25.74
2022-08-03T23:20:04.067Z,25.69
2022-08-03T23:22:32.311Z,25.67
2022-08-03T23:25:03.554Z,25.66
2022-08-03T23:27:33.994Z,25.68
2022-08-03T23:30:02.966Z,25.68
2022-08-03T23:32:31.756Z,25.67
2022-08-03T23:35:19.371Z,25.62
2022-08-03T23:38:04.006Z,25.60
2022-08-03T23:40:37.965Z,25.59
2022-08-03T23:43:07.994Z,25.58
2022-08-03T23:45:45.585Z,25.58
2022-08-03T23:48:13.707Z,25.56
2022-08-03T23:50:46.084Z,25.53
2022-08-03T23:53:19.242Z,25.50
2022-08-03T23:55:57.012Z,25.47
2022-08-03T23:58:39.828Z,25.46
